Time;durP1;ratioP1;P1;durP2;ratioP2;P2;SDS_P1;SDS_P2;PMS_P1;PMS_P2;Temp;Humidity;BMP_temperature;BMP_pressure;BME280_temperature;BME280_humidity;BME280_pressure;Samples;Min_cycle;Max_cycle;Signal;HPM_P1;HPM_P2
2022/11/10 00:00:41;;;;;;;23.48;17.80;;;8.30;99.90;;;;;;4972070;28;20212;-93
2022/11/10 00:03:10;;;;;;;28.25;18.20;;;8.20;99.90;;;;;;4976116;28;20243;-93
2022/11/10 00:05:40;;;;;;;28.65;17.45;;;8.20;99.90;;;;;;4972586;28;20212;-92
2022/11/10 00:08:11;;;;;;;20.38;15.43;;;8.20;99.90;;;;;;4971376;28;20219;-93
2022/11/10 00:13:23;;;;;;;21.77;15.00;;;8.10;99.90;;;;;;4971445;28;20307;-93
2022/11/10 00:18:38;;;;;;;17.85;13.05;;;7.80;99.90;;;;;;4971713;28;20293;-92
2022/11/10 00:21:10;;;;;;;15.45;13.68;;;7.80;99.90;;;;;;4972226;28;20215;-92
2022/11/10 00:23:39;;;;;;;17.70;14.73;;;7.70;99.90;;;;;;4971707;28;20232;-92
2022/11/10 00:26:12;;;;;;;16.58;14.23;;;7.60;99.90;;;;;;4971868;28;20208;-92
2022/11/10 00:28:41;;;;;;;16.73;13.35;;;7.50;99.90;;;;;;4971457;28;20308;-93
2022/11/10 00:31:10;;;;;;;21.83;15.82;;;7.50;99.90;;;;;;4972197;28;20223;-93
2022/11/10 00:33:40;;;;;;;20.10;14.68;;;7.50;99.90;;;;;;4972213;28;20231;-93
2022/11/10 00:36:11;;;;;;;16.33;13.70;;;7.50;99.90;;;;;;4972009;28;20222;-94
2022/11/10 00:38:39;;;;;;;17.17;15.40;;;7.50;99.90;;;;;;4971265;28;20228;-94
2022/11/10 00:41:07;;;;;;;25.60;16.60;;;7.50;99.90;;;;;;4972873;28;20220;-93
2022/11/10 00:43:36;;;;;;;21.33;16.85;;;7.50;99.90;;;;;;4973749;28;20235;-93
2022/11/10 00:46:04;;;;;;;25.48;15.68;;;7.50;99.90;;;;;;4975858;28;20204;-93
2022/11/10 00:48:32;;;;;;;17.45;15.50;;;7.60;99.90;;;;;;4976455;28;20208;-93
2022/11/10 00:51:00;;;;;;;21.58;16.13;;;7.60;99.90;;;;;;4977078;28;20208;-93
2022/11/10 00:53:30;;;;;;;21.90;16.88;;;7.60;99.90;;;;;;4977138;28;20232;-94
2022/11/10 00:55:58;;;;;;;18.10;14.73;;;7.60;99.90;;;;;;4976428;28;20208;-92
2022/11/10 00:58:26;;;;;;;20.33;15.32;;;7.60;99.90;;;;;;4976525;28;20220;-93
2022/11/10 01:01:00;;;;;;;22.85;15.32;;;7.70;99.90;;;;;;4976696;28;20208;-93
2022/11/10 01:03:29;;;;;;;19.80;14.70;;;7.60;99.90;;;;;;4976780;28;20266;-93
2022/11/10 01:05:58;;;;;;;20.90;15.70;;;7.70;99.90;;;;;;4977113;28;20209;-93
2022/11/10 01:08:26;;;;;;;15.65;13.57;;;7.60;99.90;;;;;;4976529;28;20204;-93
2022/11/10 01:11:03;;;;;;;25.60;15.48;;;7.60;99.90;;;;;;4976814;28;20212;-93
2022/11/10 01:13:32;;;;;;;18.02;14.63;;;7.50;99.90;;;;;;4976449;28;20262;-93
2022/11/10 01:16:04;;;;;;;20.58;14.60;;;7.50;99.90;;;;;;4976517;28;20210;-94
2022/11/10 01:18:32;;;;;;;15.55;13.95;;;7.40;99.90;;;;;;4976611;28;20255;-93
2022/11/10 01:21:01;;;;;;;16.58;13.98;;;7.40;99.90;;;;;;4976346;28;20219;-92
2022/11/10 01:23:29;;;;;;;15.32;13.65;;;7.30;99.90;;;;;;4976510;28;20232;-93
2022/11/10 01:25:58;;;;;;;15.77;13.98;;;7.30;99.90;;;;;;4976984;28;20223;-92
2022/11/10 01:28:28;;;;;;;16.73;14.88;;;7.30;99.90;;;;;;4976272;28;20212;-93
2022/11/10 01:30:59;;;;;;;16.55;13.73;;;7.30;99.90;;;;;;4976894;28;20208;-93
2022/11/10 01:33:28;;;;;;;25.83;14.65;;;7.20;99.90;;;;;;4975956;28;20236;-93
2022/11/10 01:35:56;;;;;;;14.27;12.82;;;7.20;99.90;;;;;;4976305;28;20209;-92
2022/11/10 01:38:27;;;;;;;15.27;13.65;;;7.20;99.90;;;;;;4975719;28;20215;-93
2022/11/10 01:40:56;;;;;;;19.25;11.63;;;7.10;99.90;;;;;;4976658;28;20214;-92
2022/11/10 01:43:25;;;;;;;19.23;14.00;;;7.20;99.90;;;;;;4976092;28;20252;-93
2022/11/10 01:45:59;;;;;;;12.63;11.40;;;7.10;99.90;;;;;;4975990;28;20216;-92
2022/11/10 01:48:32;;;;;;;13.68;12.23;;;7.10;99.90;;;;;;4975451;28;20212;-92
2022/11/10 01:51:04;;;;;;;12.02;10.85;;;7.10;99.90;;;;;;4976100;28;20226;-92
2022/11/10 01:53:36;;;;;;;16.08;11.80;;;7.00;99.90;;;;;;4976059;28;20235;-92
2022/11/10 01:56:06;;;;;;;14.07;11.65;;;7.00;99.90;;;;;;4975899;28;20200;-92
2022/11/10 01:58:39;;;;;;;14.32;12.82;;;7.00;99.90;;;;;;4975489;28;20201;-92
2022/11/10 02:01:09;;;;;;;12.35;11.18;;;7.00;99.90;;;;;;4975669;28;20295;-92
2022/11/10 02:03:43;;;;;;;12.98;11.38;;;7.00;99.90;;;;;;4975877;28;20236;-92
2022/11/10 02:06:13;;;;;;;18.58;14.30;;;7.00;99.90;;;;;;4975643;28;20216;-93
2022/11/10 02:08:42;;;;;;;18.35;12.68;;;7.00;99.90;;;;;;4975676;28;20200;-92
2022/11/10 02:11:11;;;;;;;16.08;12.43;;;7.00;99.90;;;;;;4975637;28;20288;-92
2022/11/10 02:13:40;;;;;;;25.20;12.13;;;7.00;99.90;;;;;;4975578;28;20231;-93
2022/11/10 02:16:10;;;;;;;14.63;12.60;;;7.00;99.90;;;;;;4975800;28;20206;-92
2022/11/10 02:18:39;;;;;;;14.45;12.27;;;7.10;99.90;;;;;;4975765;28;20212;-92
2022/11/10 02:21:09;;;;;;;13.95;12.50;;;7.00;99.90;;;;;;4975357;28;20235;-92
2022/11/10 02:23:49;;;;;;;13.88;12.40;;;7.00;99.90;;;;;;4975024;28;20225;-93
2022/11/10 02:26:21;;;;;;;14.13;12.52;;;7.00;99.90;;;;;;4975599;28;20212;-93
2022/11/10 02:28:50;;;;;;;13.30;11.65;;;7.00;99.90;;;;;;4979088;28;20212;-91
2022/11/10 02:31:18;;;;;;;14.23;12.73;;;7.00;99.90;;;;;;4976302;28;20208;-92
2022/11/10 02:33:47;;;;;;;13.45;12.02;;;7.00;99.90;;;;;;4975445;28;20235;-92
2022/11/10 02:36:16;;;;;;;14.98;12.70;;;7.00;99.90;;;;;;4974880;28;20247;-92
2022/11/10 02:38:45;;;;;;;18.08;12.02;;;7.00;99.90;;;;;;4974468;28;20215;-92
2022/11/10 02:41:13;;;;;;;17.83;13.15;;;7.00;99.90;;;;;;4975217;28;20224;-93
2022/11/10 02:43:42;;;;;;;14.90;12.32;;;7.00;99.90;;;;;;4974955;28;20224;-93
2022/11/10 02:46:10;;;;;;;15.73;13.57;;;7.00;99.90;;;;;;4974453;28;20208;-93
2022/11/10 02:48:38;;;;;;;12.05;10.95;;;7.00;99.90;;;;;;4974787;28;20204;-93
2022/11/10 02:51:07;;;;;;;14.20;12.63;;;7.10;99.90;;;;;;4974772;28;20208;-93
2022/11/10 02:53:36;;;;;;;13.32;11.43;;;7.10;99.90;;;;;;4975016;28;20228;-94
2022/11/10 02:56:06;;;;;;;17.73;13.13;;;7.10;99.90;;;;;;4974799;28;20303;-93
2022/11/10 02:58:34;;;;;;;14.52;12.52;;;7.10;99.90;;;;;;4974694;28;20208;-93
2022/11/10 03:01:05;;;;;;;13.77;11.48;;;7.10;99.90;;;;;;4981323;28;20231;-93
2022/11/10 03:03:34;;;;;;;16.67;12.07;;;7.00;99.90;;;;;;4974974;28;20243;-94
2022/11/10 03:06:20;;;;;;;13.98;12.57;;;7.10;99.90;;;;;;5131471;27;20639;-93
2022/11/10 03:08:49;;;;;;;16.20;11.10;;;7.10;99.90;;;;;;5131156;28;20290;-92
2022/11/10 03:11:17;;;;;;;11.88;10.32;;;7.10;99.90;;;;;;5131174;28;20197;-92
2022/11/10 03:13:45;;;;;;;13.40;11.50;;;7.10;99.90;;;;;;5131064;28;20219;-93
2022/11/10 03:16:29;;;;;;;11.23;10.05;;;7.10;99.90;;;;;;5130959;27;20207;-92
2022/11/10 03:18:57;;;;;;;12.48;11.27;;;7.10;99.90;;;;;;5130940;27;20210;-93
2022/11/10 03:21:27;;;;;;;14.25;11.07;;;7.10;99.90;;;;;;5131104;27;20195;-92
2022/11/10 03:23:55;;;;;;;11.20;10.07;;;7.10;99.90;;;;;;5131070;27;20223;-92
2022/11/10 03:26:23;;;;;;;10.98;9.77;;;7.10;99.90;;;;;;5130645;27;20229;-93
2022/11/10 03:28:52;;;;;;;11.57;10.02;;;7.10;99.90;;;;;;5130980;27;20210;-92
2022/11/10 03:31:20;;;;;;;10.15;9.23;;;7.10;99.90;;;;;;5131101;27;20207;-93
2022/11/10 03:33:48;;;;;;;17.00;10.18;;;7.10;99.90;;;;;;5130822;27;20227;-93
2022/11/10 03:36:16;;;;;;;11.63;10.40;;;7.10;99.90;;;;;;5130523;27;20195;-92
2022/11/10 03:38:46;;;;;;;12.10;9.90;;;7.20;99.90;;;;;;5130191;27;20207;-92
2022/11/10 03:41:15;;;;;;;11.15;9.52;;;7.10;99.90;;;;;;5130354;27;20234;-94
2022/11/10 03:43:48;;;;;;;10.68;9.65;;;7.20;99.90;;;;;;5130660;27;20226;-93
2022/11/10 03:46:16;;;;;;;12.60;8.93;;;7.20;99.90;;;;;;5129780;27;20218;-93
2022/11/10 03:48:45;;;;;;;12.00;9.38;;;7.20;99.90;;;;;;5130385;27;20203;-93
2022/11/10 03:51:20;;;;;;;10.23;9.23;;;7.30;99.90;;;;;;5130514;27;20207;-93
2022/11/10 03:53:50;;;;;;;9.38;8.38;;;7.30;99.90;;;;;;5130298;27;20237;-93
2022/11/10 03:56:19;;;;;;;9.80;8.85;;;7.30;99.90;;;;;;5130309;27;20196;-92
2022/11/10 03:58:47;;;;;;;10.35;9.23;;;7.20;99.90;;;;;;5129969;27;20236;-91
2022/11/10 04:01:15;;;;;;;8.60;7.78;;;7.30;99.90;;;;;;5130902;27;20298;-93
2022/11/10 04:03:44;;;;;;;10.05;9.15;;;7.20;99.90;;;;;;5130294;27;20223;-93
2022/11/10 04:09:06;;;;;;;12.00;9.93;;;7.30;99.90;;;;;;5129775;27;20209;-94
2022/11/10 04:17:05;;;;;;;10.43;8.95;;;7.40;99.90;;;;;;5119567;27;20218;-93
2022/11/10 04:19:34;;;;;;;9.20;8.23;;;7.30;99.90;;;;;;5115929;28;20206;-93
2022/11/10 04:22:02;;;;;;;9.38;8.15;;;7.30;99.90;;;;;;5116089;28;20281;-93
2022/11/10 04:24:32;;;;;;;7.88;7.10;;;7.40;99.90;;;;;;5116107;28;20236;-93
2022/11/10 04:27:00;;;;;;;15.18;7.80;;;7.40;99.90;;;;;;5115820;28;20206;-92
2022/11/10 04:29:28;;;;;;;8.48;7.65;;;7.40;99.90;;;;;;5116818;28;20211;-94
2022/11/10 04:31:56;;;;;;;6.75;6.20;;;7.50;99.90;;;;;;5116442;28;20200;-93
2022/11/10 04:34:25;;;;;;;8.35;7.55;;;7.50;99.90;;;;;;5116383;28;20228;-92
2022/11/10 04:36:53;;;;;;;7.13;6.43;;;7.50;99.90;;;;;;5115986;28;20200;-93
2022/11/10 04:39:21;;;;;;;6.20;5.68;;;7.50;99.90;;;;;;5115931;28;20214;-92
2022/11/10 04:41:51;;;;;;;7.88;7.07;;;7.50;99.90;;;;;;5115715;28;20208;-93
2022/11/10 04:44:19;;;;;;;7.50;6.90;;;7.50;99.90;;;;;;5115633;28;20228;-92
2022/11/10 04:46:48;;;;;;;7.50;6.82;;;7.50;99.90;;;;;;5115060;28;20226;-93
2022/11/10 04:49:17;;;;;;;7.88;6.60;;;7.50;99.90;;;;;;5115831;28;20208;-93
2022/11/10 04:51:47;;;;;;;7.43;6.72;;;7.60;99.90;;;;;;5115924;28;20203;-93
2022/11/10 04:54:16;;;;;;;7.97;7.22;;;7.50;99.90;;;;;;5115761;28;20227;-93
2022/11/10 04:56:44;;;;;;;6.70;6.10;;;7.50;99.90;;;;;;5115292;28;20209;-93
2022/11/10 04:59:14;;;;;;;6.03;5.53;;;7.60;99.90;;;;;;5115534;28;20208;-92
2022/11/10 05:01:43;;;;;;;8.07;6.72;;;7.60;99.90;;;;;;5115872;28;20210;-92
2022/11/10 05:04:11;;;;;;;6.75;6.07;;;7.70;99.90;;;;;;5114983;27;20233;-95
2022/11/10 05:06:39;;;;;;;6.78;5.65;;;7.80;99.90;;;;;;5115596;27;20227;-92
2022/11/10 05:09:08;;;;;;;7.18;6.47;;;7.80;99.90;;;;;;5118892;28;20294;-93
2022/11/10 05:11:36;;;;;;;6.63;6.03;;;7.80;99.90;;;;;;5115595;28;20217;-93
2022/11/10 05:14:05;;;;;;;6.32;5.75;;;7.90;99.90;;;;;;5115057;28;20237;-93
2022/11/10 05:16:36;;;;;;;5.78;5.38;;;8.00;99.90;;;;;;5115040;28;20206;-92
2022/11/10 05:19:04;;;;;;;7.82;7.13;;;8.00;99.90;;;;;;5115329;28;20214;-94
2022/11/10 05:21:33;;;;;;;8.75;6.35;;;8.00;99.90;;;;;;5115177;28;20208;-94
2022/11/10 05:24:01;;;;;;;8.35;6.85;;;8.00;99.90;;;;;;5114974;27;20227;-93
2022/11/10 05:26:29;;;;;;;9.30;7.43;;;8.00;99.90;;;;;;5114602;28;20216;-94
2022/11/10 05:28:57;;;;;;;8.63;7.65;;;8.00;99.90;;;;;;5113689;28;20199;-94
2022/11/10 05:31:26;;;;;;;7.93;6.68;;;8.00;99.90;;;;;;5114840;28;20204;-95
2022/11/10 05:33:56;;;;;;;13.65;8.55;;;8.00;99.90;;;;;;5115245;28;20231;-94
2022/11/10 05:36:24;;;;;;;7.75;6.70;;;7.90;99.90;;;;;;5114738;28;20200;-94
2022/11/10 05:38:52;;;;;;;9.38;8.00;;;8.00;99.90;;;;;;5114258;28;20298;-93
2022/11/10 05:41:21;;;;;;;8.80;7.60;;;7.90;99.90;;;;;;5114448;28;20210;-93
2022/11/10 05:43:49;;;;;;;11.13;8.02;;;8.00;99.90;;;;;;5114504;27;20232;-95
2022/11/10 05:46:17;;;;;;;10.13;8.80;;;8.00;99.90;;;;;;5114452;28;20307;-93
2022/11/10 05:48:47;;;;;;;13.48;11.43;;;8.00;99.90;;;;;;5114287;28;20211;-93
2022/11/10 05:51:17;;;;;;;12.40;10.05;;;8.00;99.90;;;;;;5115104;28;20204;-93
2022/11/10 05:53:45;;;;;;;9.75;8.57;;;8.10;99.90;;;;;;5114285;28;20234;-93
2022/11/10 05:56:13;;;;;;;11.63;9.52;;;8.10;99.90;;;;;;5114515;28;20211;-94
2022/11/10 05:58:42;;;;;;;12.32;9.18;;;8.10;99.90;;;;;;5114326;28;20215;-93
2022/11/10 06:01:10;;;;;;;11.90;8.77;;;8.10;99.90;;;;;;5114444;28;20291;-93
2022/11/10 06:03:38;;;;;;;11.65;9.65;;;8.20;99.90;;;;;;5114531;28;20247;-93
2022/11/10 06:06:07;;;;;;;10.02;7.93;;;8.30;99.90;;;;;;5113913;28;20224;-93
2022/11/10 06:08:37;;;;;;;8.52;7.55;;;8.30;99.90;;;;;;5114210;28;20202;-93
2022/11/10 06:11:06;;;;;;;8.48;7.15;;;8.40;99.90;;;;;;5113886;27;20204;-94
2022/11/10 06:13:34;;;;;;;14.63;8.48;;;8.50;99.90;;;;;;5114495;28;20222;-93
2022/11/10 06:16:02;;;;;;;7.35;6.65;;;8.50;99.90;;;;;;5113881;28;20207;-92
2022/11/10 06:18:30;;;;;;;7.93;7.18;;;8.50;99.90;;;;;;5113596;28;20259;-93
2022/11/10 06:20:59;;;;;;;8.07;7.22;;;8.50;99.90;;;;;;5113865;28;20211;-93
2022/11/10 06:23:28;;;;;;;6.80;6.15;;;8.60;99.90;;;;;;5113467;28;20226;-93
2022/11/10 06:25:58;;;;;;;7.88;6.95;;;8.60;99.90;;;;;;5113736;28;20239;-93
2022/11/10 06:28:26;;;;;;;9.82;7.60;;;8.70;99.90;;;;;;5113707;28;20210;-94
2022/11/10 06:30:58;;;;;;;8.02;6.60;;;8.70;99.90;;;;;;5113948;28;20211;-93
2022/11/10 06:33:26;;;;;;;6.30;5.40;;;8.80;99.90;;;;;;5113761;28;20215;-93
2022/11/10 06:35:54;;;;;;;6.93;5.90;;;8.90;99.90;;;;;;5114098;28;20199;-94
2022/11/10 06:38:22;;;;;;;4.97;4.55;;;9.00;99.90;;;;;;5113391;28;20211;-93
2022/11/10 06:40:51;;;;;;;4.85;4.47;;;9.10;99.90;;;;;;5112962;28;20290;-93
2022/11/10 06:43:21;;;;;;;5.43;4.97;;;9.30;99.90;;;;;;5113631;28;20223;-93
2022/11/10 06:45:49;;;;;;;5.32;4.93;;;9.50;99.90;;;;;;5113929;28;20203;-93
2022/11/10 06:48:18;;;;;;;5.95;5.13;;;9.60;99.90;;;;;;5112912;28;20202;-93
2022/11/10 06:50:46;;;;;;;5.60;5.07;;;9.70;99.90;;;;;;5114002;28;20231;-93
2022/11/10 06:53:15;;;;;;;5.60;5.03;;;9.80;99.90;;;;;;5113500;28;20248;-91
2022/11/10 06:55:44;;;;;;;4.78;4.32;;;9.80;99.90;;;;;;5113276;28;20203;-93
2022/11/10 06:58:12;;;;;;;5.63;5.20;;;9.90;99.90;;;;;;5113436;28;20203;-93
2022/11/10 07:00:42;;;;;;;6.53;5.93;;;10.00;99.90;;;;;;5113234;28;20214;-93
2022/11/10 07:03:13;;;;;;;4.90;4.50;;;10.00;99.90;;;;;;5113562;28;20223;-93
2022/11/10 07:05:42;;;;;;;5.32;4.90;;;10.00;99.90;;;;;;5113589;28;20219;-93
2022/11/10 07:08:14;;;;;;;6.32;5.10;;;10.10;99.90;;;;;;5112764;28;20225;-92
2022/11/10 07:10:43;;;;;;;5.78;4.75;;;10.10;99.90;;;;;;5113370;28;20211;-93
2022/11/10 07:13:12;;;;;;;6.25;5.10;;;10.10;99.90;;;;;;5113046;28;20318;-93
2022/11/10 07:15:42;;;;;;;4.50;4.15;;;10.20;99.90;;;;;;5113249;28;20291;-93
2022/11/10 07:18:10;;;;;;;4.43;4.13;;;10.20;99.90;;;;;;5113914;28;20200;-93
2022/11/10 07:20:38;;;;;;;4.90;4.47;;;10.30;99.90;;;;;;5113305;28;20226;-93
2022/11/10 07:23:08;;;;;;;6.07;5.45;;;10.30;99.90;;;;;;5113194;28;20234;-93
2022/11/10 07:25:38;;;;;;;5.72;5.03;;;10.40;99.90;;;;;;5112974;28;20207;-93
2022/11/10 07:28:09;;;;;;;4.40;4.03;;;10.40;99.90;;;;;;5112577;28;20223;-93
2022/11/10 07:30:40;;;;;;;4.38;3.97;;;10.40;99.90;;;;;;5113408;28;20207;-92
2022/11/10 07:33:12;;;;;;;5.57;4.90;;;10.40;99.90;;;;;;5117122;28;20216;-91
2022/11/10 07:35:41;;;;;;;5.47;4.97;;;10.50;99.90;;;;;;5114063;28;20211;-92
2022/11/10 07:38:11;;;;;;;7.70;5.82;;;10.50;99.90;;;;;;5112562;28;20200;-92
2022/11/10 07:40:40;;;;;;;5.10;4.55;;;10.60;99.90;;;;;;5112563;28;20208;-92
2022/11/10 07:43:08;;;;;;;4.40;4.00;;;10.60;99.90;;;;;;5113432;28;20216;-92
2022/11/10 07:45:37;;;;;;;9.18;5.68;;;10.60;99.90;;;;;;5112977;28;20203;-92
2022/11/10 07:48:06;;;;;;;4.80;4.40;;;10.70;99.90;;;;;;5112430;28;20227;-92
2022/11/10 07:50:36;;;;;;;7.05;4.53;;;10.70;99.90;;;;;;5112868;28;20199;-92
2022/11/10 07:53:05;;;;;;;4.93;4.47;;;10.70;99.90;;;;;;5116389;28;20238;-92
2022/11/10 07:55:34;;;;;;;4.50;4.10;;;10.70;99.90;;;;;;5116811;28;20215;-92
2022/11/10 07:58:03;;;;;;;5.35;4.40;;;10.80;99.90;;;;;;5116986;28;20226;-92
2022/11/10 08:00:32;;;;;;;4.72;4.32;;;10.80;99.90;;;;;;5122376;28;20214;-91
2022/11/10 08:03:04;;;;;;;5.28;4.53;;;10.90;99.90;;;;;;5117219;28;20220;-92
2022/11/10 08:05:33;;;;;;;5.10;4.63;;;11.00;99.90;;;;;;5116367;28;20227;-93
2022/11/10 08:08:03;;;;;;;4.32;3.92;;;11.00;99.90;;;;;;5116108;28;20230;-93
2022/11/10 08:10:33;;;;;;;8.98;5.55;;;11.10;99.90;;;;;;5116441;28;20207;-93
2022/11/10 08:13:03;;;;;;;4.20;3.80;;;11.10;99.90;;;;;;5116339;27;20247;-92
2022/11/10 08:15:33;;;;;;;4.63;4.05;;;11.20;99.90;;;;;;5116490;28;20214;-93
2022/11/10 08:18:02;;;;;;;13.23;4.93;;;11.20;99.90;;;;;;5115859;28;20206;-93
2022/11/10 08:20:30;;;;;;;7.53;6.20;;;11.30;99.90;;;;;;5116382;27;20211;-91
2022/11/10 08:23:00;;;;;;;14.90;4.90;;;11.30;99.90;;;;;;5116000;28;20231;-93
2022/11/10 08:25:31;;;;;;;5.82;3.35;;;11.30;99.90;;;;;;5116453;28;20204;-90
2022/11/10 08:28:04;;;;;;;6.22;4.20;;;11.30;99.90;;;;;;5114740;28;20227;-83
2022/11/10 08:30:34;;;;;;;3.88;3.58;;;11.30;99.90;;;;;;5114989;28;20228;-85
2022/11/10 08:33:05;;;;;;;6.10;4.30;;;11.30;99.90;;;;;;5115810;28;20219;-86
2022/11/10 08:35:36;;;;;;;3.25;3.03;;;11.30;99.90;;;;;;5116033;28;20208;-87
2022/11/10 08:38:10;;;;;;;4.15;3.75;;;11.40;99.90;;;;;;5114973;28;20187;-86
2022/11/10 08:40:41;;;;;;;4.20;3.83;;;11.40;99.90;;;;;;5104340;28;20279;-89
2022/11/10 08:43:12;;;;;;;3.67;3.38;;;11.40;99.90;;;;;;5115484;28;20228;-89
2022/11/10 08:45:46;;;;;;;3.00;2.80;;;11.50;99.90;;;;;;5115370;28;20222;-88
2022/11/10 08:48:20;;;;;;;3.97;3.63;;;11.50;99.90;;;;;;5114941;28;20215;-86
2022/11/10 08:50:52;;;;;;;4.20;3.70;;;11.60;99.90;;;;;;5116360;28;20214;-87
2022/11/10 08:53:22;;;;;;;3.65;3.35;;;11.60;99.90;;;;;;5116124;28;20230;-85
2022/11/10 08:55:53;;;;;;;3.75;3.45;;;11.60;99.90;;;;;;5116201;28;20204;-85
2022/11/10 08:58:23;;;;;;;3.78;3.47;;;11.70;99.90;;;;;;5115823;28;20282;-87
2022/11/10 09:00:52;;;;;;;3.25;2.95;;;11.70;99.90;;;;;;5116001;28;20219;-86
2022/11/10 09:03:22;;;;;;;3.22;2.92;;;11.80;99.90;;;;;;5115596;28;20247;-86
2022/11/10 09:05:53;;;;;;;3.33;3.10;;;11.80;99.90;;;;;;5115911;28;20253;-86
2022/11/10 09:08:38;;;;;;;3.35;3.08;;;11.90;99.90;;;;;;5115497;28;20215;-86
2022/11/10 09:11:09;;;;;;;3.38;3.13;;;12.00;99.90;;;;;;5095042;28;20224;-86
2022/11/10 09:13:41;;;;;;;3.90;3.58;;;12.00;99.90;;;;;;5095060;28;20230;-85
2022/11/10 09:16:16;;;;;;;3.05;2.85;;;12.00;99.90;;;;;;5099161;28;20275;-86
2022/11/10 09:18:45;;;;;;;3.47;3.17;;;12.10;99.90;;;;;;5114100;27;20261;-86
2022/11/10 09:21:16;;;;;;;3.15;2.88;;;12.10;99.90;;;;;;5103977;27;20192;-87
2022/11/10 09:23:48;;;;;;;2.88;2.67;;;12.10;99.90;;;;;;5102084;28;20216;-86
2022/11/10 09:26:24;;;;;;;3.20;2.90;;;12.20;99.90;;;;;;5114194;28;20196;-87
2022/11/10 09:28:57;;;;;;;3.15;2.95;;;12.20;99.90;;;;;;5114437;28;20280;-87
2022/11/10 09:31:32;;;;;;;2.72;2.53;;;12.20;99.90;;;;;;5115296;28;20297;-87
2022/11/10 09:34:01;;;;;;;2.85;2.65;;;12.30;99.90;;;;;;5114836;28;20220;-87
2022/11/10 09:36:33;;;;;;;2.97;2.78;;;12.30;99.90;;;;;;5114906;28;20287;-87
2022/11/10 09:39:05;;;;;;;3.08;2.88;;;12.40;99.90;;;;;;5114727;28;20291;-87
2022/11/10 09:41:42;;;;;;;2.97;2.78;;;12.40;99.90;;;;;;5114793;28;20203;-87
2022/11/10 09:44:16;;;;;;;2.92;2.72;;;12.40;99.90;;;;;;5115112;28;20227;-86
2022/11/10 09:46:51;;;;;;;2.45;2.28;;;12.40;99.90;;;;;;5093775;28;20216;-87
2022/11/10 09:49:32;;;;;;;3.17;2.63;;;12.40;99.90;;;;;;5097817;28;20223;-87
2022/11/10 09:52:03;;;;;;;3.33;3.08;;;12.50;99.90;;;;;;5105121;28;20276;-87
2022/11/10 09:54:40;;;;;;;2.50;2.30;;;12.50;99.90;;;;;;5101432;28;20223;-87
2022/11/10 09:57:15;;;;;;;2.95;2.47;;;12.50;99.90;;;;;;5114853;28;20229;-86
2022/11/10 09:59:52;;;;;;;4.13;3.15;;;12.60;99.90;;;;;;5098125;28;20200;-86
2022/11/10 10:02:27;;;;;;;2.67;2.47;;;12.60;99.90;;;;;;5093398;28;20200;-87
2022/11/10 10:05:38;;;;;;;2.70;2.38;;;12.60;99.90;;;;;;5093915;28;20238;-86
2022/11/10 10:08:09;;;;;;;3.38;3.00;;;12.60;99.90;;;;;;5096201;28;20319;-87
2022/11/10 10:10:45;;;;;;;2.53;2.33;;;12.60;99.90;;;;;;5114476;28;20298;-86
2022/11/10 10:13:48;;;;;;;3.15;2.75;;;12.70;99.90;;;;;;5113662;28;20211;-86
2022/11/10 10:16:23;;;;;;;2.55;2.33;;;12.70;99.90;;;;;;5096928;28;20286;-86
2022/11/10 10:18:58;;;;;;;2.85;2.55;;;12.70;99.90;;;;;;5097115;28;20188;-86
2022/11/10 10:21:41;;;;;;;2.53;2.33;;;12.70;99.90;;;;;;5094190;28;20267;-86
2022/11/10 10:24:13;;;;;;;2.60;2.40;;;12.70;99.90;;;;;;5100963;28;20246;-86
2022/11/10 10:26:52;;;;;;;3.42;2.10;;;12.70;99.90;;;;;;5114018;28;20200;-87
2022/11/10 10:29:25;;;;;;;2.33;2.22;;;12.60;99.90;;;;;;5113689;28;20220;-86
2022/11/10 10:31:57;;;;;;;2.78;2.58;;;12.60;99.90;;;;;;5113818;28;20221;-86
2022/11/10 10:34:29;;;;;;;2.53;2.38;;;12.60;99.90;;;;;;5114033;28;20311;-86
2022/11/10 10:39:47;;;;;;;2.63;2.42;;;12.50;99.90;;;;;;5113784;28;20204;-87
2022/11/10 10:42:23;;;;;;;2.97;2.78;;;12.50;99.90;;;;;;5093356;28;20208;-85
2022/11/10 10:45:15;;;;;;;3.40;3.10;;;12.50;99.90;;;;;;5095148;28;20228;-84
2022/11/10 10:47:45;;;;;;;3.17;2.97;;;12.40;99.90;;;;;;5113378;28;20208;-87
2022/11/10 10:50:26;;;;;;;4.55;4.15;;;12.40;99.90;;;;;;5113295;28;20220;-87
2022/11/10 10:53:12;;;;;;;3.30;3.08;;;12.40;99.90;;;;;;5113574;28;20234;-87
2022/11/10 10:55:46;;;;;;;3.92;3.53;;;12.30;99.90;;;;;;5113661;28;20294;-81
2022/11/10 10:58:28;;;;;;;4.53;3.95;;;12.30;99.90;;;;;;5113056;28;20204;-79
2022/11/10 11:01:05;;;;;;;3.50;3.20;;;12.30;99.90;;;;;;5113444;28;20195;-80
2022/11/10 11:03:41;;;;;;;3.03;2.83;;;12.30;99.90;;;;;;5113535;28;20223;-80
2022/11/10 11:06:21;;;;;;;4.38;3.05;;;12.30;99.90;;;;;;5112632;28;20209;-80
2022/11/10 11:09:01;;;;;;;4.43;3.85;;;12.30;99.90;;;;;;5112324;28;20215;-80
2022/11/10 11:11:32;;;;;;;3.42;3.13;;;12.20;99.90;;;;;;5112722;28;20264;-80
2022/11/10 11:14:27;;;;;;;4.88;3.90;;;12.30;99.90;;;;;;5112437;28;20229;-80
2022/11/10 11:16:59;;;;;;;3.67;3.38;;;12.20;99.90;;;;;;5113507;28;20204;-80
2022/11/10 11:19:33;;;;;;;5.80;4.30;;;12.30;99.90;;;;;;5113098;28;20223;-80
2022/11/10 11:22:34;;;;;;;4.95;3.58;;;12.30;99.90;;;;;;5113170;28;20219;-80
2022/11/10 11:25:16;;;;;;;3.72;3.42;;;12.30;99.90;;;;;;5113181;28;20267;-80
2022/11/10 11:27:54;;;;;;;4.63;4.18;;;12.30;99.90;;;;;;5116116;28;20199;-80
2022/11/10 11:30:24;;;;;;;4.82;4.40;;;12.30;99.90;;;;;;5117660;28;20231;-84
2022/11/10 11:33:21;;;;;;;4.57;3.67;;;12.30;99.90;;;;;;5117523;28;20208;-85
2022/11/10 11:36:01;;;;;;;6.32;4.30;;;12.30;99.90;;;;;;5117053;28;20198;-83
2022/11/10 11:38:35;;;;;;;3.45;3.15;;;12.30;99.90;;;;;;5117097;28;20202;-84
2022/11/10 11:41:24;;;;;;;4.47;3.55;;;12.30;99.90;;;;;;5117222;28;20199;-83
2022/11/10 11:44:11;;;;;;;6.20;4.22;;;12.30;99.90;;;;;;5117083;27;20219;-83
2022/11/10 11:46:46;;;;;;;4.35;3.92;;;12.30;99.90;;;;;;5115811;28;20199;-84
2022/11/10 11:49:51;;;;;;;6.22;3.85;;;12.30;99.90;;;;;;5116816;28;20219;-83
2022/11/10 11:52:28;;;;;;;4.00;3.70;;;12.30;99.90;;;;;;5116650;28;20206;-84
2022/11/10 11:55:15;;;;;;;3.58;3.22;;;12.30;99.90;;;;;;5117064;28;20227;-84
2022/11/10 11:57:56;;;;;;;5.55;4.18;;;12.40;99.90;;;;;;5116216;28;20210;-83
2022/11/10 12:00:25;;;;;;;4.00;3.22;;;12.40;99.90;;;;;;5116576;28;20203;-84
2022/11/10 12:03:38;;;;;;;4.22;3.83;;;12.40;99.90;;;;;;5116091;28;20231;-83
2022/11/10 12:06:43;;;;;;;4.20;3.80;;;12.30;99.90;;;;;;5097936;28;20235;-84
2022/11/10 12:09:26;;;;;;;4.18;3.63;;;12.40;99.90;;;;;;5116490;28;20224;-84
2022/11/10 12:12:15;;;;;;;4.38;3.78;;;12.40;99.90;;;;;;5116446;28;20211;-84
2022/11/10 12:15:04;;;;;;;5.30;4.13;;;12.40;99.90;;;;;;5116346;28;20224;-83
2022/11/10 12:17:55;;;;;;;7.85;4.20;;;12.40;99.90;;;;;;5115836;28;20227;-83
2022/11/10 12:20:34;;;;;;;3.58;3.35;;;12.40;99.90;;;;;;5116156;28;20200;-84
2022/11/10 12:23:21;;;;;;;3.60;3.15;;;12.40;99.90;;;;;;5116012;28;20279;-84
2022/11/10 12:26:01;;;;;;;4.55;3.85;;;12.40;99.90;;;;;;5115477;28;20203;-84
2022/11/10 12:28:38;;;;;;;13.23;3.58;;;12.50;99.90;;;;;;5115864;28;20230;-84
2022/11/10 12:31:15;;;;;;;5.75;4.22;;;12.50;99.90;;;;;;5115698;28;20223;-84
2022/11/10 12:34:06;;;;;;;6.93;4.32;;;12.50;99.90;;;;;;5115979;28;20280;-83
2022/11/10 12:36:43;;;;;;;4.90;4.47;;;12.50;99.90;;;;;;5116087;27;20210;-84
2022/11/10 12:39:23;;;;;;;4.38;4.05;;;12.50;99.90;;;;;;5115822;28;20192;-83
2022/11/10 12:41:58;;;;;;;4.47;4.03;;;12.60;99.90;;;;;;5115785;28;20265;-84
2022/11/10 12:44:37;;;;;;;6.32;4.63;;;12.50;99.90;;;;;;5114981;28;20219;-84
2022/11/10 12:47:09;;;;;;;4.50;4.10;;;12.50;99.90;;;;;;5115423;28;20212;-83
2022/11/10 12:49:41;;;;;;;4.97;4.57;;;12.60;99.90;;;;;;5115855;28;20228;-83
2022/11/10 12:52:15;;;;;;;7.00;4.93;;;12.60;99.90;;;;;;5115500;28;20199;-83
2022/11/10 12:54:46;;;;;;;4.22;3.53;;;12.60;99.90;;;;;;5115369;28;20220;-83
2022/11/10 12:57:18;;;;;;;6.43;4.55;;;12.70;99.90;;;;;;5115571;28;20204;-83
2022/11/10 12:59:54;;;;;;;5.82;4.38;;;12.60;99.90;;;;;;5115948;27;20204;-84
2022/11/10 13:02:28;;;;;;;5.60;5.00;;;12.60;99.90;;;;;;5118027;28;20204;-83
2022/11/10 13:05:34;;;;;;;5.25;4.75;;;12.60;99.90;;;;;;5115200;28;20238;-83
2022/11/10 13:08:16;;;;;;;5.95;3.75;;;12.60;99.90;;;;;;5083547;28;20214;-84
2022/11/10 13:10:55;;;;;;;4.72;4.38;;;12.60;99.90;;;;;;5114765;28;20227;-83
2022/11/10 13:13:25;;;;;;;4.35;3.95;;;12.60;99.90;;;;;;5115000;27;20219;-83
2022/11/10 13:15:56;;;;;;;4.68;4.28;;;12.60;99.90;;;;;;5115256;28;20215;-83
2022/11/10 13:18:57;;;;;;;6.68;5.55;;;12.60;99.90;;;;;;5114898;28;20215;-83
2022/11/10 13:21:55;;;;;;;5.93;4.80;;;12.60;99.90;;;;;;5114926;28;20196;-83
2022/11/10 13:24:25;;;;;;;5.57;5.07;;;12.50;99.90;;;;;;5110639;28;20241;-83
2022/11/10 13:26:56;;;;;;;4.70;4.28;;;12.50;99.90;;;;;;5115067;28;20289;-84
2022/11/10 13:29:34;;;;;;;7.13;4.80;;;12.50;99.90;;;;;;5114716;28;20204;-84